Time;durP1;ratioP1;P1;durP2;ratioP2;P2;SDS_P1;SDS_P2;PMS_P1;PMS_P2;Temp;Humidity;BMP_temperature;BMP_pressure;BME280_temperature;BME280_humidity;BME280_pressure;Samples;Min_cycle;Max_cycle;Signal;HPM_P1;HPM_P2
2021/11/03 00:05:31;;;;;;;2.79;1.92;;;;;;;6.48;97.12;97763.44;2056081;70;20323;-80
2021/11/03 00:08:36;;;;;;;3.34;2.34;;;;;;;6.52;96.92;97754.78;1987047;81;20320;-79
2021/11/03 00:11:48;;;;;;;2.49;2.09;;;;;;;6.57;96.87;97752.13;1994292;81;20393;-80
2021/11/03 00:15:51;;;;;;;4.10;2.13;;;;;;;6.60;96.76;97750.34;1998847;81;20453;-83
2021/11/03 00:35:38;;;;;;;3.84;2.00;;;;;;;6.77;96.48;97741.50;2045014;70;20319;-81
2021/11/03 00:38:44;;;;;;;2.63;1.95;;;;;;;6.77;96.33;97747.50;2002272;81;20790;-79
2021/11/03 00:42:27;;;;;;;1.80;1.70;;;;;;;6.79;96.24;97735.44;2001005;81;20183;-81
2021/11/03 00:45:30;;;;;;;2.99;2.17;;;;;;;6.82;96.18;97727.66;1999165;78;31603;-81
2021/11/03 00:48:33;;;;;;;3.15;2.03;;;;;;;6.84;96.18;97730.22;2002186;81;20308;-80
2021/11/03 00:51:36;;;;;;;2.64;2.34;;;;;;;6.87;96.22;97727.59;2000421;81;20360;-80
2021/11/03 00:54:39;;;;;;;2.35;2.06;;;;;;;6.89;96.24;97723.25;2002147;81;20909;-80
2021/11/03 00:57:41;;;;;;;2.83;2.26;;;;;;;6.91;96.21;97722.34;2001323;81;20968;-80
2021/11/03 01:00:45;;;;;;;2.20;2.00;;;;;;;6.93;96.16;97712.84;1997823;79;22406;-80
2021/11/03 01:03:48;;;;;;;2.78;2.33;;;;;;;6.94;96.09;97713.69;1996106;81;20439;-81
2021/11/03 01:06:51;;;;;;;3.29;1.88;;;;;;;6.97;96.09;97700.72;1996171;81;20876;-80
2021/11/03 01:09:53;;;;;;;2.25;1.54;;;;;;;6.99;96.09;97696.38;1996987;81;20400;-80
2021/11/03 01:12:56;;;;;;;3.74;1.60;;;;;;;7.04;96.17;97698.91;1998674;81;20636;-80
2021/11/03 01:15:59;;;;;;;2.13;1.95;;;;;;;7.04;96.10;97694.59;1996867;78;20928;-80
2021/11/03 01:19:02;;;;;;;2.45;1.46;;;;;;;7.07;96.16;97691.13;2001620;81;20750;-80
2021/11/03 01:22:05;;;;;;;4.60;1.79;;;;;;;7.08;96.31;97688.50;2000824;81;20347;-79
2021/11/03 01:25:10;;;;;;;2.22;1.88;;;;;;;7.12;96.31;97686.72;2000155;81;20353;-79
2021/11/03 01:28:14;;;;;;;2.49;1.80;;;;;;;7.11;96.24;97678.13;2000746;81;20866;-80
2021/11/03 01:31:17;;;;;;;3.24;1.79;;;;;;;7.13;96.31;97678.94;1998748;78;29230;-79
2021/11/03 01:34:19;;;;;;;2.89;1.90;;;;;;;7.15;96.37;97684.06;1998139;81;20331;-79
2021/11/03 01:37:22;;;;;;;2.63;1.83;;;;;;;7.15;96.33;97677.19;1989699;81;20442;-79
2021/11/03 01:40:30;;;;;;;2.42;1.61;;;;;;;7.17;96.23;97685.75;1989686;81;20339;-79
2021/11/03 01:43:48;;;;;;;1.74;1.41;;;;;;;7.16;96.09;97684.03;1989512;81;20398;-78
2021/11/03 01:46:56;;;;;;;1.85;1.36;;;;;;;7.17;95.97;97688.31;1988724;79;24822;-79
2021/11/03 01:49:59;;;;;;;1.46;1.30;;;;;;;7.19;95.91;97685.75;1989217;81;20332;-79
2021/11/03 01:53:08;;;;;;;2.01;1.44;;;;;;;7.19;95.92;97694.34;1989673;81;20381;-78
2021/11/03 01:56:11;;;;;;;1.48;1.38;;;;;;;7.20;95.82;97680.56;1989553;81;20353;-78
2021/11/03 01:59:24;;;;;;;1.59;1.36;;;;;;;7.21;95.76;97676.22;1989690;81;20554;-78
2021/11/03 02:02:27;;;;;;;1.13;1.01;;;;;;;7.23;95.82;97669.31;1986482;79;21754;-79
2021/11/03 02:05:30;;;;;;;1.13;0.95;;;;;;;7.25;95.91;97675.28;1989411;81;20746;-78
2021/11/03 02:08:35;;;;;;;1.76;1.00;;;;;;;7.25;95.88;97668.41;1989356;81;20355;-79
2021/11/03 02:11:38;;;;;;;2.30;1.04;;;;;;;7.30;95.95;97667.44;1990126;81;20385;-80
2021/11/03 02:14:40;;;;;;;2.17;0.94;;;;;;;7.31;95.88;97662.25;1990435;81;20383;-79
2021/11/03 02:17:45;;;;;;;3.17;1.11;;;;;;;7.33;95.87;97657.91;1987889;79;24432;-78
2021/11/03 02:20:49;;;;;;;1.92;1.10;;;;;;;7.33;95.84;97651.91;1989208;81;20361;-78
2021/11/03 02:24:10;;;;;;;0.98;0.95;;;;;;;7.35;95.88;97644.97;1990211;81;20418;-79
2021/11/03 02:27:14;;;;;;;2.34;1.10;;;;;;;7.36;95.82;97633.75;1985756;81;20424;-79
2021/11/03 02:30:23;;;;;;;1.66;0.96;;;;;;;7.35;95.74;97622.59;1989512;81;20406;-80
2021/11/03 02:33:28;;;;;;;1.06;0.99;;;;;;;7.36;95.72;97619.16;1983283;81;20365;-80
2021/11/03 02:36:31;;;;;;;2.88;1.10;;;;;;;7.37;95.68;97622.59;1993744;81;20196;-79
2021/11/03 02:39:39;;;;;;;2.39;1.04;;;;;;;7.39;95.79;97620.81;1994951;81;20366;-79
2021/11/03 02:42:46;;;;;;;1.58;1.05;;;;;;;7.39;95.81;97620.81;1994430;81;20362;-79
2021/11/03 02:45:55;;;;;;;1.65;1.14;;;;;;;7.40;95.83;97604.44;1993046;79;23850;-79
2021/11/03 02:48:57;;;;;;;1.34;1.24;;;;;;;7.41;95.84;97604.41;1994893;81;20340;-78
2021/11/03 02:52:02;;;;;;;1.64;1.34;;;;;;;7.41;95.72;97595.81;1994165;81;20191;-79
2021/11/03 02:55:08;;;;;;;1.23;1.00;;;;;;;7.39;95.74;97595.84;1994878;81;20335;-79
2021/11/03 02:58:11;;;;;;;1.59;1.16;;;;;;;7.39;95.75;97590.69;1995299;81;20358;-80
2021/11/03 03:01:30;;;;;;;2.44;1.40;;;;;;;7.39;95.79;97595.00;1992923;78;25397;-79
2021/11/03 03:04:37;;;;;;;2.50;1.20;;;;;;;7.38;95.83;97581.25;1994730;81;20338;-79
2021/11/03 03:07:40;;;;;;;2.38;1.36;;;;;;;7.38;95.85;97588.13;1999606;81;20682;-79
2021/11/03 03:10:43;;;;;;;2.17;1.30;;;;;;;7.38;95.93;97582.97;1995927;81;20375;-80
2021/11/03 03:13:46;;;;;;;2.75;1.10;;;;;;;7.38;95.88;97582.97;1992821;81;20330;-80
2021/11/03 03:16:48;;;;;;;1.91;1.52;;;;;;;7.39;95.79;97574.34;1994742;78;21935;-78
2021/11/03 03:19:52;;;;;;;2.55;1.30;;;;;;;7.38;95.76;97557.16;1995655;81;20370;-78
2021/11/03 03:22:55;;;;;;;2.11;1.11;;;;;;;7.38;95.83;97539.09;1995509;81;20322;-79
2021/11/03 03:25:59;;;;;;;2.41;1.30;;;;;;;7.38;95.75;97541.66;1996677;81;20494;-80
2021/11/03 03:29:03;;;;;;;1.15;1.04;;;;;;;7.38;95.70;97539.09;1999534;81;20326;-80
2021/11/03 03:32:06;;;;;;;3.55;1.50;;;;;;;7.38;95.66;97533.91;1989105;81;20377;-81
2021/11/03 03:35:10;;;;;;;1.13;1.10;;;;;;;7.37;95.79;97530.50;2000251;81;20416;-81
2021/11/03 03:38:13;;;;;;;2.96;1.06;;;;;;;7.38;95.88;97529.59;2003068;81;20333;-80
2021/11/03 03:41:20;;;;;;;0.99;0.80;;;;;;;7.38;95.81;97526.19;2003129;81;20387;-81
2021/11/03 03:44:27;;;;;;;0.89;0.88;;;;;;;7.36;95.69;97521.03;1990284;81;20399;-80
2021/11/03 03:47:32;;;;;;;1.33;0.88;;;;;;;7.36;95.79;97518.47;2002310;81;20309;-80
2021/11/03 03:50:37;;;;;;;1.13;0.64;;;;;;;7.35;95.92;97514.16;2003050;81;20341;-79
2021/11/03 03:53:39;;;;;;;2.16;0.75;;;;;;;7.36;95.94;97509.84;2000576;81;20314;-79
2021/11/03 03:56:44;;;;;;;1.55;0.80;;;;;;;7.34;95.93;97509.03;2002938;81;20357;-79
2021/11/03 03:59:47;;;;;;;0.70;0.66;;;;;;;7.35;95.96;97502.97;2003475;81;20343;-79
2021/11/03 04:02:52;;;;;;;0.68;0.51;;;;;;;7.33;95.96;97494.41;2001072;78;42547;-81
2021/11/03 04:05:59;;;;;;;1.69;0.40;;;;;;;7.33;96.00;97492.69;2002819;81;20310;-81
2021/11/03 04:10:07;;;;;;;1.20;0.40;;;;;;;7.33;96.05;97484.09;2007997;81;20274;-82
2021/11/03 04:26:30;;;;;;;0.41;0.41;;;;;;;7.31;96.09;97502.19;2199604;70;20500;-80
2021/11/03 04:29:39;;;;;;;0.41;0.40;;;;;;;7.34;96.03;97498.69;1998410;81;20342;-79
2021/11/03 04:32:43;;;;;;;0.35;0.32;;;;;;;7.36;95.90;97486.59;1993523;81;20799;-79
2021/11/03 04:35:49;;;;;;;0.44;0.20;;;;;;;7.35;95.79;97483.16;2003417;81;20318;-79
2021/11/03 04:39:30;;;;;;;0.47;0.20;;;;;;;7.37;95.86;97480.59;2006166;81;20357;-80
2021/11/03 04:43:16;;;;;;;0.20;0.20;;;;;;;7.38;95.80;97483.13;1991123;82;20343;-82
2021/11/03 04:51:31;;;;;;;0.99;0.40;;;;;;;7.44;95.62;97474.38;1987726;82;20313;-80
2021/11/03 06:33:29;;;;;;;0.50;0.50;;;;;;;7.77;95.88;97423.66;2140364;70;20318;-80
2021/11/03 06:36:32;;;;;;;0.88;0.60;;;;;;;7.79;95.92;97432.22;2002105;81;20925;-79
2021/11/03 06:39:37;;;;;;;0.56;0.52;;;;;;;7.80;95.94;97419.28;2004637;81;20357;-81
2021/11/03 06:42:40;;;;;;;0.63;0.60;;;;;;;7.82;95.93;97427.81;2004169;81;20326;-82
2021/11/03 06:45:43;;;;;;;1.73;0.68;;;;;;;7.82;95.80;97430.41;1996398;81;21568;-81
2021/11/03 06:48:46;;;;;;;0.66;0.64;;;;;;;7.86;95.82;97438.94;1997676;81;20352;-81
2021/11/03 06:51:49;;;;;;;0.70;0.60;;;;;;;7.86;95.77;97432.03;1998881;81;20314;-79
2021/11/03 06:54:54;;;;;;;1.41;0.80;;;;;;;7.87;95.68;97435.44;2092924;70;20346;-81
2021/11/03 06:57:57;;;;;;;0.77;0.77;;;;;;;7.88;95.65;97438.00;1993559;81;20319;-80
2021/11/03 07:01:00;;;;;;;2.53;0.69;;;;;;;7.91;95.64;97436.25;1995091;81;20433;-80
2021/11/03 07:04:03;;;;;;;1.13;0.82;;;;;;;7.89;95.63;97431.94;1997269;81;20537;-80
2021/11/03 07:07:06;;;;;;;1.38;0.90;;;;;;;7.91;95.56;97429.34;2000874;81;20322;-81
2021/11/03 07:10:18;;;;;;;1.06;0.95;;;;;;;7.93;95.69;97440.50;1999471;81;20392;-80
2021/11/03 07:13:22;;;;;;;1.54;1.06;;;;;;;7.95;95.66;97436.13;1998108;81;20326;-80
2021/11/03 07:16:26;;;;;;;1.79;1.00;;;;;;;7.96;95.67;97444.72;1999341;81;22400;-80
2021/11/03 07:19:29;;;;;;;0.98;0.88;;;;;;;7.97;95.64;97449.84;2002941;81;20341;-80
2021/11/03 07:22:31;;;;;;;1.02;0.81;;;;;;;8.00;95.66;97454.09;2004878;81;20355;-80
2021/11/03 07:25:34;;;;;;;1.11;0.91;;;;;;;8.03;95.58;97454.00;2004199;81;20321;-81
2021/11/03 07:28:38;;;;;;;0.81;0.81;;;;;;;8.03;95.54;97454.84;2003533;81;20314;-82
2021/11/03 07:31:41;;;;;;;0.91;0.88;;;;;;;8.06;95.59;97456.50;2008459;81;20290;-82
2021/11/03 07:34:44;;;;;;;1.09;0.99;;;;;;;8.06;95.54;97451.34;2006041;81;20427;-82
2021/11/03 07:37:52;;;;;;;0.80;0.80;;;;;;;8.09;95.58;97459.03;2007657;81;20311;-83
2021/11/03 07:41:06;;;;;;;1.45;1.10;;;;;;;8.10;95.62;97469.34;2013453;81;20274;-83
2021/11/03 07:44:52;;;;;;;0.98;0.98;;;;;;;8.14;95.61;97472.69;2018533;81;20135;-83
2021/11/03 07:48:08;;;;;;;1.20;1.10;;;;;;;8.17;95.57;97475.19;2012900;81;20309;-83
2021/11/03 07:51:26;;;;;;;0.86;0.86;;;;;;;8.21;95.60;97481.97;2013334;81;20315;-84
2021/11/03 07:54:43;;;;;;;0.96;0.86;;;;;;;8.25;95.61;97485.31;2019182;80;20341;-84
2021/11/03 07:58:14;;;;;;;1.21;0.90;;;;;;;8.29;95.65;97487.81;2014750;81;20322;-84
2021/11/03 08:01:25;;;;;;;0.90;0.90;;;;;;;8.32;95.76;97486.88;2000972;78;60004;-83
2021/11/03 08:04:30;;;;;;;3.45;0.93;;;;;;;8.35;95.73;97494.59;2000018;81;20428;-81
2021/11/03 08:07:33;;;;;;;1.40;0.90;;;;;;;8.38;95.61;97492.75;1990873;81;20822;-81
2021/11/03 08:10:36;;;;;;;1.09;1.00;;;;;;;8.41;95.58;97491.81;1996950;81;20329;-81
2021/11/03 08:13:39;;;;;;;1.80;0.90;;;;;;;8.41;95.54;97495.25;2000466;81;20351;-81
2021/11/03 08:17:04;;;;;;;1.08;0.98;;;;;;;8.46;95.59;97495.16;2003425;81;20350;-82
2021/11/03 08:20:10;;;;;;;1.27;1.09;;;;;;;8.52;95.53;97492.41;1996899;81;20288;-83
2021/11/03 08:23:14;;;;;;;1.11;1.00;;;;;;;8.58;95.53;97491.38;2006939;81;20292;-82
2021/11/03 08:26:19;;;;;;;1.91;1.21;;;;;;;8.61;95.51;97492.13;2013530;81;20296;-82
2021/11/03 08:29:24;;;;;;;0.99;0.98;;;;;;;8.66;95.35;97497.22;2004662;81;20292;-84
2021/11/03 08:32:31;;;;;;;2.09;1.91;;;;;;;8.68;95.48;97488.50;1998914;81;20390;-84
2021/11/03 08:35:36;;;;;;;3.04;1.00;;;;;;;8.74;95.62;97492.66;2007624;81;20286;-84
2021/11/03 08:38:40;;;;;;;0.85;0.85;;;;;;;8.79;95.58;97493.38;1994503;86;20304;-84
2021/11/03 08:41:44;;;;;;;1.27;0.90;;;;;;;8.85;95.51;97493.22;2000962;81;20297;-84
2021/11/03 08:44:48;;;;;;;1.49;1.06;;;;;;;8.91;95.47;97500.81;1998590;81;20285;-84
2021/11/03 08:47:56;;;;;;;1.73;1.02;;;;;;;9.01;95.57;97494.47;2000042;82;20300;-84
2021/11/03 08:50:59;;;;;;;1.40;0.96;;;;;;;9.14;95.61;97505.31;1997109;81;20417;-84
2021/11/03 08:54:07;;;;;;;1.33;0.89;;;;;;;9.20;95.46;97497.38;1989688;81;20299;-84
2021/11/03 08:57:21;;;;;;;2.67;0.90;;;;;;;9.26;95.41;97509.28;2008956;80;20291;-84
2021/11/03 09:00:44;;;;;;;1.17;0.80;;;;;;;9.33;95.39;97509.06;2030485;80;20270;-85
2021/11/03 09:03:57;;;;;;;0.91;0.90;;;;;;;9.39;95.16;97511.50;2009459;80;20274;-85
2021/11/03 09:07:08;;;;;;;1.34;0.89;;;;;;;9.45;95.07;97515.63;2004220;81;20159;-84
2021/11/03 09:10:14;;;;;;;1.63;0.86;;;;;;;9.49;94.74;97522.41;2005363;81;20154;-84
2021/11/03 09:13:25;;;;;;;1.01;0.80;;;;;;;9.53;94.54;97515.41;2014722;81;20453;-84
2021/11/03 09:16:28;;;;;;;;;;;;;;;9.55;94.48;97518.81;2007872;81;20304;-84
2021/11/03 09:19:31;;;;;;;0.79;0.79;;;;;;;9.57;94.37;97512.66;2008743;81;20051;-84
2021/11/03 09:22:37;;;;;;;0.60;0.60;;;;;;;9.59;94.47;97518.66;2003275;81;20394;-85
2021/11/03 09:25:41;;;;;;;1.60;0.60;;;;;;;9.61;94.38;97510.81;2007260;81;20339;-84
2021/11/03 09:28:45;;;;;;;0.55;0.52;;;;;;;9.64;94.33;97523.69;1988272;81;20150;-83
2021/11/03 09:31:48;;;;;;;3.00;0.74;;;;;;;9.64;94.26;97513.31;1972714;87;20169;-85
2021/11/03 09:34:51;;;;;;;0.96;0.60;;;;;;;9.63;94.31;97528.03;1977782;82;20187;-84
2021/11/03 09:37:57;;;;;;;1.94;0.70;;;;;;;9.63;94.20;97525.44;1981592;82;20148;-83
2021/11/03 09:41:06;;;;;;;1.30;0.54;;;;;;;9.64;94.33;97526.28;1975491;82;20282;-83
2021/11/03 09:44:34;;;;;;;3.08;0.50;;;;;;;9.67;94.37;97521.84;1979947;82;20319;-83
2021/11/03 09:47:39;;;;;;;1.76;0.43;;;;;;;9.72;94.36;97526.06;1982730;82;20295;-82
2021/11/03 09:50:48;;;;;;;0.63;0.50;;;;;;;9.77;94.28;97524.16;1995390;81;20343;-83
2021/11/03 09:54:02;;;;;;;0.30;0.30;;;;;;;9.78;94.13;97529.28;2009354;81;20315;-83
2021/11/03 09:57:40;;;;;;;0.56;0.40;;;;;;;9.84;94.11;97539.47;2005854;81;20127;-83
2021/11/03 10:00:47;;;;;;;0.45;0.25;;;;;;;9.85;93.97;97551.53;2019370;80;20294;-83
2021/11/03 10:04:26;;;;;;;0.30;0.30;;;;;;;9.81;93.61;97538.72;2008868;81;20167;-83
2021/11/03 10:08:05;;;;;;;0.68;0.36;;;;;;;9.83;93.39;97547.28;1999992;81;20203;-82
2021/11/03 10:11:21;;;;;;;0.76;0.40;;;;;;;9.77;92.74;97542.31;2000778;81;20132;-82
2021/11/03 10:14:27;;;;;;;0.30;0.30;;;;;;;9.69;91.86;97547.72;2007055;81;20161;-82
2021/11/03 10:17:31;;;;;;;0.61;0.40;;;;;;;9.66;91.88;97550.41;2004839;79;37689;-83
2021/11/03 10:20:40;;;;;;;0.96;0.60;;;;;;;9.63;91.96;97545.31;1996057;81;20166;-82
2021/11/03 10:23:57;;;;;;;3.39;0.75;;;;;;;9.62;91.57;97553.97;1999096;81;20317;-83
2021/11/03 10:27:09;;;;;;;0.46;0.40;;;;;;;9.59;91.46;97552.34;1997325;81;20184;-81
2021/11/03 10:30:29;;;;;;;1.75;0.30;;;;;;;9.58;91.23;97553.22;1999727;81;20322;-83
2021/11/03 10:33:41;;;;;;;0.47;0.47;;;;;;;9.54;90.41;97558.56;1996538;81;20206;-83
2021/11/03 10:36:46;;;;;;;0.52;0.30;;;;;;;9.53;90.26;97556.88;1995398;81;20289;-83
2021/11/03 10:40:05;;;;;;;2.35;0.30;;;;;;;9.52;90.51;97560.34;1994042;81;20286;-83
2021/11/03 10:43:28;;;;;;;;;;;;;;;9.51;90.30;97558.63;1994214;81;20293;-83
2021/11/03 10:46:53;;;;;;;0.81;0.40;;;;;;;9.53;90.34;97560.31;1995466;82;20020;-82
2021/11/03 10:50:02;;;;;;;0.17;0.17;;;;;;;9.57;90.16;97555.88;1997266;81;21599;-84
2021/11/03 10:53:25;;;;;;;0.36;0.11;;;;;;;9.62;90.30;97564.34;1995870;81;20136;-82
2021/11/03 10:56:34;;;;;;;0.47;0.20;;;;;;;9.72;90.83;97560.59;1994873;81;20304;-81
2021/11/03 10:59:48;;;;;;;0.30;0.21;;;;;;;9.73;90.40;97569.22;1999903;81;20295;-82
2021/11/03 11:03:14;;;;;;;0.14;0.10;;;;;;;9.77;90.64;97568.22;2017670;79;20144;-81
2021/11/03 11:06:24;;;;;;;0.38;0.38;;;;;;;9.77;90.41;97563.88;2002306;81;20370;-83
2021/11/03 11:09:39;;;;;;;0.49;0.24;;;;;;;9.83;90.59;97568.88;2002455;81;20464;-82
2021/11/03 11:12:44;;;;;;;0.45;0.20;;;;;;;9.92;90.84;97572.94;1997138;81;20182;-81
2021/11/03 11:15:57;;;;;;;0.65;0.40;;;;;;;9.97;90.92;97563.28;2005725;81;20135;-83
2021/11/03 11:19:28;;;;;;;0.36;0.29;;;;;;;9.97;90.38;97563.28;2003947;81;20182;-83
2021/11/03 11:22:42;;;;;;;0.28;0.20;;;;;;;9.99;89.96;97566.66;2002006;81;20131;-83
2021/11/03 11:26:12;;;;;;;0.26;0.20;;;;;;;10.08;89.89;97557.75;2001344;81;20186;-84
2021/11/03 11:29:35;;;;;;;0.25;0.25;;;;;;;10.16;89.86;97561.78;2000473;81;20119;-84
2021/11/03 11:32:54;;;;;;;0.47;0.40;;;;;;;10.23;89.51;97552.97;2002636;81;20139;-81
2021/11/03 11:36:08;;;;;;;0.42;0.30;;;;;;;10.31;88.64;97554.44;2003419;82;20166;-82
2021/11/03 11:39:17;;;;;;;0.51;0.20;;;;;;;10.36;88.24;97549.94;2011239;81;20124;-83
2021/11/03 11:42:34;;;;;;;2.19;0.31;;;;;;;10.37;87.51;97544.69;2000250;81;20199;-83
2021/11/03 11:45:38;;;;;;;0.75;0.30;;;;;;;10.32;87.08;97550.94;2001837;81;20124;-83
2021/11/03 11:48:42;;;;;;;0.54;0.30;;;;;;;10.28;87.56;97558.00;1999836;85;20132;-85
2021/11/03 11:51:51;;;;;;;0.60;0.30;;;;;;;10.30;88.40;97556.19;2007671;81;20189;-84
2021/11/03 11:55:06;;;;;;;;;;;;;;;10.32;88.39;97553.53;2008325;81;20155;-84
2021/11/03 11:58:21;;;;;;;0.49;0.30;;;;;;;10.26;88.29;97549.41;2013630;81;20092;-84
2021/11/03 12:01:35;;;;;;;0.60;0.39;;;;;;;10.27;88.78;97554.53;2006144;80;20155;-82
2021/11/03 12:04:40;;;;;;;0.30;0.30;;;;;;;10.29;88.99;97541.53;2012607;81;20249;-82
2021/11/03 12:08:12;;;;;;;0.43;0.22;;;;;;;10.27;89.48;97543.31;2005754;81;20182;-80
2021/11/03 12:11:27;;;;;;;0.43;0.10;;;;;;;10.17;89.42;97557.44;1996754;81;21071;-81
2021/11/03 12:14:43;;;;;;;0.20;0.20;;;;;;;9.86;88.96;97562.75;2002388;81;20799;-80
2021/11/03 12:17:51;;;;;;;0.71;0.15;;;;;;;9.71;89.34;97553.72;2000066;79;31251;-80
2021/11/03 12:20:57;;;;;;;0.44;0.20;;;;;;;9.65;89.63;97557.31;1998755;81;20350;-79
2021/11/03 12:24:31;;;;;;;0.43;0.20;;;;;;;9.60;89.63;97555.78;1991709;81;20585;-79
2021/11/03 12:27:34;;;;;;;0.10;0.10;;;;;;;9.55;89.89;97544.72;1997378;81;20187;-80
2021/11/03 12:30:45;;;;;;;0.40;0.17;;;;;;;9.51;89.95;97554.28;1990571;79;21223;-78
2021/11/03 12:34:03;;;;;;;0.71;0.13;;;;;;;9.47;90.04;97554.44;1995371;81;20182;-80
2021/11/03 12:37:06;;;;;;;0.46;0.46;;;;;;;9.46;90.43;97551.00;2002581;81;20153;-83
2021/11/03 12:40:40;;;;;;;0.79;0.20;;;;;;;9.49;90.83;97550.91;2002552;81;20132;-84
2021/11/03 12:43:56;;;;;;;0.25;0.20;;;;;;;9.57;90.97;97548.09;1998792;81;20287;-86
2021/11/03 12:47:11;;;;;;;2.50;0.39;;;;;;;9.63;91.08;97551.34;1989505;82;20301;-85
2021/11/03 12:50:17;;;;;;;0.29;0.25;;;;;;;9.62;90.82;97562.59;1994647;81;20297;-84
2021/11/03 12:53:39;;;;;;;0.73;0.40;;;;;;;9.56;90.44;97552.44;1993269;81;20301;-84
2021/11/03 12:56:55;;;;;;;1.00;0.50;;;;;;;9.54;90.56;97549.03;1994036;81;20347;-83
2021/11/03 13:00:12;;;;;;;1.70;0.70;;;;;;;9.52;90.44;97556.00;1992925;85;20309;-83
2021/11/03 13:03:35;;;;;;;0.63;0.30;;;;;;;9.56;90.48;97567.13;2005829;81;20441;-84
2021/11/03 13:07:18;;;;;;;5.14;0.30;;;;;;;9.51;89.77;97558.63;2004846;81;20143;-83
2021/11/03 13:10:29;;;;;;;0.29;0.24;;;;;;;9.36;88.95;97562.53;2008433;81;20371;-83
2021/11/03 13:14:12;;;;;;;0.29;0.29;;;;;;;9.21;89.02;97561.22;2004817;81;20236;-84
2021/11/03 13:17:37;;;;;;;0.82;0.20;;;;;;;9.05;89.15;97554.78;2002121;81;20315;-84
2021/11/03 13:21:04;;;;;;;1.31;0.30;;;;;;;9.06;89.80;97543.53;1981443;82;20401;-85
2021/11/03 13:24:17;;;;;;;0.93;0.20;;;;;;;9.05;89.67;97547.88;1981993;82;20285;-83
2021/11/03 13:27:29;;;;;;;0.52;0.20;;;;;;;9.13;89.98;97550.22;1982038;82;20194;-82
2021/11/03 13:30:34;;;;;;;3.30;0.40;;;;;;;9.25;90.06;97552.47;1977694;83;20235;-83
2021/11/03 13:33:40;;;;;;;0.82;0.54;;;;;;;9.46;90.03;97547.56;1985491;82;20316;-83
2021/11/03 13:37:02;;;;;;;0.70;0.30;;;;;;;9.74;90.06;97545.84;1980352;82;20388;-86
2021/11/03 13:40:32;;;;;;;0.94;0.30;;;;;;;9.94;88.89;97538.28;1977714;82;20159;-84
2021/11/03 13:43:42;;;;;;;0.30;0.30;;;;;;;10.04;88.14;97530.19;1977850;82;20155;-85
2021/11/03 13:47:00;;;;;;;1.35;0.35;;;;;;;10.09;88.01;97534.38;1960020;87;20452;-84
2021/11/03 13:50:25;;;;;;;0.90;0.30;;;;;;;10.03;86.98;97531.94;1974569;86;20131;-84
2021/11/03 13:53:41;;;;;;;0.56;0.30;;;;;;;9.91;86.28;97535.81;1975820;82;20227;-85
2021/11/03 13:56:50;;;;;;;0.31;0.21;;;;;;;9.87;85.75;97543.69;1972263;82;20259;-85
2021/11/03 14:00:00;;;;;;;0.20;0.20;;;;;;;9.88;85.22;97550.59;1965460;83;20299;-85
2021/11/03 14:03:44;;;;;;;0.20;0.20;;;;;;;9.84;85.18;97547.25;1965361;83;20153;-84
2021/11/03 14:07:32;;;;;;;;;;;;;;;9.81;85.43;97551.69;1964528;82;20239;-85
2021/11/03 14:11:13;;;;;;;0.39;0.20;;;;;;;9.75;85.23;97557.91;1953989;83;20105;-86
2021/11/03 14:15:06;;;;;;;0.20;0.20;;;;;;;9.80;86.62;97558.59;1951941;83;20312;-85
2021/11/03 14:18:46;;;;;;;0.26;0.15;;;;;;;9.83;86.76;97558.50;1952833;83;20377;-85
2021/11/03 14:23:00;;;;;;;0.81;0.29;;;;;;;9.91;86.13;97548.75;1953747;87;20147;-85
2021/11/03 14:30:10;;;;;;;0.80;0.30;;;;;;;10.05;86.62;97548.31;2125092;70;20166;-81
2021/11/03 14:33:23;;;;;;;0.73;0.30;;;;;;;10.08;86.27;97555.16;2007264;78;30698;-81
2021/11/03 14:36:27;;;;;;;0.60;0.31;;;;;;;10.15;86.26;97557.50;2002833;81;20246;-81
2021/11/03 14:39:33;;;;;;;0.24;0.24;;;;;;;10.23;86.39;97557.25;2004071;81;20156;-81
2021/11/03 14:42:36;;;;;;;0.21;0.19;;;;;;;10.31;86.36;97557.03;2000229;81;20143;-81
2021/11/03 14:45:40;;;;;;;0.54;0.20;;;;;;;10.32;85.04;97562.16;2000767;81;20305;-80
2021/11/03 14:48:42;;;;;;;0.20;0.20;;;;;;;10.22;83.90;97566.78;1999134;81;20213;-81
2021/11/03 14:51:45;;;;;;;0.14;0.11;;;;;;;10.10;83.67;97564.59;2000388;81;20221;-81
2021/11/03 14:54:48;;;;;;;0.59;0.20;;;;;;;10.05;84.11;97566.44;2005094;81;20397;-82
2021/11/03 14:57:50;;;;;;;0.21;0.20;;;;;;;9.98;84.47;97567.56;2005036;81;20225;-81
2021/11/03 15:01:01;;;;;;;0.90;0.20;;;;;;;9.96;84.47;97575.38;2000845;81;20128;-81
2021/11/03 15:04:16;;;;;;;0.20;0.20;;;;;;;9.97;84.86;97574.47;2006739;81;20225;-81
2021/11/03 15:07:19;;;;;;;1.71;0.16;;;;;;;9.97;84.65;97577.06;2009726;81;20132;-81
2021/11/03 15:10:33;;;;;;;0.10;0.10;;;;;;;9.94;84.16;97579.78;2002554;81;20128;-80
2021/11/03 15:13:38;;;;;;;0.10;0.10;;;;;;;9.89;83.66;97579.06;2005250;81;20193;-80
2021/11/03 15:16:41;;;;;;;0.14;0.10;;;;;;;9.87;83.85;97578.25;2004934;81;20148;-81
2021/11/03 15:20:17;;;;;;;0.29;0.16;;;;;;;9.87;84.37;97580.00;2006760;81;20225;-80
2021/11/03 15:23:27;;;;;;;0.11;0.10;;;;;;;9.85;84.81;97580.03;2003209;81;20296;-81
2021/11/03 15:26:30;;;;;;;0.10;0.10;;;;;;;9.79;84.33;97585.41;2006346;81;20128;-81
2021/11/03 15:29:32;;;;;;;0.20;0.10;;;;;;;9.74;84.32;97582.13;2009442;81;20203;-80
2021/11/03 15:32:38;;;;;;;0.10;0.10;;;;;;;9.72;85.01;97575.31;2007778;78;24814;-80
2021/11/03 15:36:10;;;;;;;0.32;0.14;;;;;;;9.68;85.29;97574.50;2002411;81;20242;-80
2021/11/03 15:46:31;;;;;;;0.10;0.10;;;;;;;9.39;84.23;97581.41;1995070;81;20367;-81
2021/11/03 15:49:36;;;;;;;2.20;0.20;;;;;;;9.39;84.81;97585.75;1986255;81;20201;-81
2021/11/03 15:52:39;;;;;;;0.10;0.10;;;;;;;9.32;85.39;97586.81;1983175;81;20198;-81
2021/11/03 15:55:44;;;;;;;0.36;0.20;;;;;;;9.25;85.21;97586.13;1999035;81;20693;-80
2021/11/03 15:58:46;;;;;;;0.10;0.10;;;;;;;9.19;85.71;97585.47;1993054;81;20364;-81
2021/11/03 16:01:53;;;;;;;0.17;0.17;;;;;;;9.06;86.53;97580.63;1991585;81;20308;-80
2021/11/03 16:05:04;;;;;;;0.20;0.20;;;;;;;8.96;87.37;97586.94;1997995;81;20188;-81
2021/11/03 16:08:07;;;;;;;0.91;0.25;;;;;;;8.90;87.98;97587.09;1983474;81;20380;-80
2021/11/03 16:11:10;;;;;;;0.47;0.20;;;;;;;8.86;87.93;97593.25;1995898;81;20335;-81
2021/11/03 16:18:06;;;;;;;0.82;0.25;;;;;;;8.77;88.19;97601.25;1997539;81;20677;-80
2021/11/03 16:21:28;;;;;;;0.20;0.20;;;;;;;8.73;88.47;97608.25;1998426;81;20340;-81
2021/11/03 16:24:34;;;;;;;0.82;0.30;;;;;;;8.73;89.07;97610.84;1995236;81;20353;-80
2021/11/03 16:27:37;;;;;;;0.35;0.30;;;;;;;8.71;89.60;97609.19;1993413;81;20187;-80
2021/11/03 16:30:44;;;;;;;0.20;0.20;;;;;;;8.69;89.87;97604.03;1995991;81;20361;-81
2021/11/03 16:33:47;;;;;;;0.20;0.20;;;;;;;8.69;89.72;97609.22;1995935;81;20389;-81
2021/11/03 16:36:52;;;;;;;0.52;0.26;;;;;;;8.68;90.04;97610.13;1997739;81;20359;-81
2021/11/03 16:39:55;;;;;;;1.27;0.30;;;;;;;8.63;90.16;97611.13;1997970;81;20320;-81
2021/11/03 16:43:02;;;;;;;0.39;0.36;;;;;;;8.61;89.87;97618.03;1997148;81;20713;-80
2021/11/03 16:46:05;;;;;;;0.50;0.30;;;;;;;8.58;89.60;97608.63;1991228;79;115609;-81
2021/11/03 16:49:10;;;;;;;0.32;0.30;;;;;;;8.55;89.47;97608.72;1980652;81;20400;-81
2021/11/03 16:52:13;;;;;;;1.14;0.40;;;;;;;8.51;89.94;97598.50;1992259;81;20366;-81
2021/11/03 16:55:20;;;;;;;0.65;0.30;;;;;;;8.45;90.51;97597.75;1991871;81;20739;-80
2021/11/03 16:58:23;;;;;;;0.80;0.29;;;;;;;8.40;nan;97602.19;1987648;81;20423;-80
2021/11/03 17:01:39;;;;;;;0.30;0.30;;;;;;;8.38;90.04;97609.13;1988101;81;20364;-80
2021/11/03 17:05:21;;;;;;;0.20;0.20;;;;;;;8.36;89.85;97613.50;1980226;81;20337;-80
2021/11/03 17:09:04;;;;;;;0.79;0.30;;;;;;;8.33;89.84;97621.28;1994220;81;20360;-80
2021/11/03 17:12:44;;;;;;;0.46;0.30;;;;;;;8.30;89.88;97629.13;1990433;81;20390;-80
2021/11/03 17:16:12;;;;;;;0.40;0.30;;;;;;;8.28;90.12;97628.31;1991394;81;20353;-81
2021/11/03 17:19:47;;;;;;;0.28;0.28;;;;;;;8.28;90.20;97628.31;1979843;82;20523;-80
2021/11/03 17:23:26;;;;;;;0.82;0.40;;;;;;;8.29;90.59;97626.59;1974965;82;20465;-81
2021/11/03 17:27:26;;;;;;;0.44;0.40;;;;;;;8.30;90.80;97636.03;1970692;82;20892;-80
2021/11/03 17:30:55;;;;;;;2.44;0.50;;;;;;;8.30;90.91;97643.78;1968027;82;20391;-80
2021/11/03 17:34:38;;;;;;;0.59;0.43;;;;;;;8.30;91.32;97636.88;1964162;83;20449;-81
